aviador You're here:

VTPO Decoded Metar

SUKHOTHAI in THAILAND
Report Time2017-08-22 01:00:00
UTC Time2017-08-22 01:42:09
Flight Rules vfr VFR
WindVRB at 02 kt
Visibility9999 m
Phenomena:N/A
Clouds:Scattered 018 Hf
Expected CloudBase > 800 ft AGL from Temp-Dew spread
CeilingNone
Temp27°C (ISA +12)
Dew Point25°C (89% RH)
Heat Index30.6°C
QNH1006 hPa
Density Alt2,254 ft
Elevation177 ft
Report Wrong Elevation
Raw Report
VTPO 220100Z VRB02KT 9999 SCT018 27/25 Q1006=

Extra information for VTPO:More info

Metar Taf Metar & Taf Last 4 Metars F.Rules Stats Wind Profile Meteogram Temp Stats Airport Information Weather charts Add Link Nearby VenuesMetar ALERT Operation Metar Decoded Social comments